sensor_id;sensor_type;location;lat;lon;timestamp;temperature;humidity
11140;DHT22;5624;49.388;11.350;2023-04-03T00:00:56;1.50;76.30
11140;DHT22;5624;49.388;11.350;2023-04-03T00:03:22;1.40;76.80
11140;DHT22;5624;49.388;11.350;2023-04-03T00:05:48;1.30;77.90
11140;DHT22;5624;49.388;11.350;2023-04-03T00:08:13;1.30;77.60
11140;DHT22;5624;49.388;11.350;2023-04-03T00:10:39;1.30;78.60
11140;DHT22;5624;49.388;11.350;2023-04-03T00:13:06;1.30;78.70
11140;DHT22;5624;49.388;11.350;2023-04-03T00:15:32;1.30;78.70
11140;DHT22;5624;49.388;11.350;2023-04-03T00:17:58;1.20;78.60
11140;DHT22;5624;49.388;11.350;2023-04-03T00:20:23;1.10;79.20
11140;DHT22;5624;49.388;11.350;2023-04-03T00:22:49;1.00;79.60
11140;DHT22;5624;49.388;11.350;2023-04-03T00:25:15;1.00;79.80
11140;DHT22;5624;49.388;11.350;2023-04-03T00:27:40;1.00;80.20
11140;DHT22;5624;49.388;11.350;2023-04-03T00:30:08;1.00;80.10
11140;DHT22;5624;49.388;11.350;2023-04-03T00:32:34;1.10;80.00
11140;DHT22;5624;49.388;11.350;2023-04-03T00:35:00;1.10;80.00
11140;DHT22;5624;49.388;11.350;2023-04-03T00:37:25;1.00;80.30
11140;DHT22;5624;49.388;11.350;2023-04-03T00:39:51;1.10;80.30
11140;DHT22;5624;49.388;11.350;2023-04-03T00:42:16;1.10;80.00
11140;DHT22;5624;49.388;11.350;2023-04-03T00:47:11;1.20;79.80
11140;DHT22;5624;49.388;11.350;2023-04-03T00:49:39;1.20;80.00
11140;DHT22;5624;49.388;11.350;2023-04-03T00:52:08;1.10;80.40
11140;DHT22;5624;49.388;11.350;2023-04-03T00:54:36;1.10;81.10
11140;DHT22;5624;49.388;11.350;2023-04-03T00:57:03;1.00;81.00
11140;DHT22;5624;49.388;11.350;2023-04-03T00:59:33;1.00;81.00
11140;DHT22;5624;49.388;11.350;2023-04-03T01:02:00;1.00;80.20
11140;DHT22;5624;49.388;11.350;2023-04-03T01:06:55;0.90;80.90
11140;DHT22;5624;49.388;11.350;2023-04-03T01:09:21;0.90;81.30
11140;DHT22;5624;49.388;11.350;2023-04-03T01:11:47;0.80;81.20
11140;DHT22;5624;49.388;11.350;2023-04-03T01:14:13;0.80;81.90
11140;DHT22;5624;49.388;11.350;2023-04-03T01:16:38;0.80;82.00
11140;DHT22;5624;49.388;11.350;2023-04-03T01:19:08;0.80;82.10
11140;DHT22;5624;49.388;11.350;2023-04-03T01:22:10;0.70;82.10
11140;DHT22;5624;49.388;11.350;2023-04-03T01:24:40;0.70;82.20
11140;DHT22;5624;49.388;11.350;2023-04-03T01:27:07;0.70;82.20
11140;DHT22;5624;49.388;11.350;2023-04-03T01:29:34;0.60;82.60
11140;DHT22;5624;49.388;11.350;2023-04-03T01:32:01;0.60;82.70
11140;DHT22;5624;49.388;11.350;2023-04-03T01:34:28;0.60;82.60
11140;DHT22;5624;49.388;11.350;2023-04-03T01:36:54;0.60;82.50
11140;DHT22;5624;49.388;11.350;2023-04-03T01:39:20;0.50;82.80
11140;DHT22;5624;49.388;11.350;2023-04-03T01:41:46;0.60;82.30
11140;DHT22;5624;49.388;11.350;2023-04-03T01:44:12;0.50;82.00
11140;DHT22;5624;49.388;11.350;2023-04-03T01:46:37;0.60;81.40
11140;DHT22;5624;49.388;11.350;2023-04-03T01:49:04;0.60;81.80
11140;DHT22;5624;49.388;11.350;2023-04-03T01:51:30;0.50;82.30
11140;DHT22;5624;49.388;11.350;2023-04-03T01:53:55;0.40;82.50
11140;DHT22;5624;49.388;11.350;2023-04-03T01:56:21;0.40;82.30
11140;DHT22;5624;49.388;11.350;2023-04-03T01:58:46;0.30;82.40
11140;DHT22;5624;49.388;11.350;2023-04-03T02:01:12;0.20;82.60
11140;DHT22;5624;49.388;11.350;2023-04-03T02:03:38;0.30;82.00
11140;DHT22;5624;49.388;11.350;2023-04-03T02:06:03;0.20;82.80
11140;DHT22;5624;49.388;11.350;2023-04-03T02:08:29;0.10;83.10
11140;DHT22;5624;49.388;11.350;2023-04-03T02:10:54;0.10;83.40
11140;DHT22;5624;49.388;11.350;2023-04-03T02:13:20;0.20;83.00
11140;DHT22;5624;49.388;11.350;2023-04-03T02:15:46;0.20;82.60
11140;DHT22;5624;49.388;11.350;2023-04-03T02:18:12;0.10;82.80
11140;DHT22;5624;49.388;11.350;2023-04-03T02:20:37;0.10;83.00
11140;DHT22;5624;49.388;11.350;2023-04-03T02:23:03;0.20;82.40
11140;DHT22;5624;49.388;11.350;2023-04-03T02:25:30;0.30;81.50
11140;DHT22;5624;49.388;11.350;2023-04-03T02:27:56;0.30;82.10
11140;DHT22;5624;49.388;11.350;2023-04-03T02:30:21;0.40;80.90
11140;DHT22;5624;49.388;11.350;2023-04-03T02:32:47;0.40;80.60
11140;DHT22;5624;49.388;11.350;2023-04-03T02:35:12;0.40;80.80
11140;DHT22;5624;49.388;11.350;2023-04-03T02:37:38;0.50;80.30
11140;DHT22;5624;49.388;11.350;2023-04-03T02:40:05;0.50;80.30
11140;DHT22;5624;49.388;11.350;2023-04-03T02:42:31;0.40;80.80
11140;DHT22;5624;49.388;11.350;2023-04-03T02:44:57;0.50;80.40
11140;DHT22;5624;49.388;11.350;2023-04-03T02:47:22;0.50;80.70
11140;DHT22;5624;49.388;11.350;2023-04-03T02:49:48;0.50;80.50
11140;DHT22;5624;49.388;11.350;2023-04-03T02:52:14;0.40;81.20
11140;DHT22;5624;49.388;11.350;2023-04-03T02:54:40;0.40;81.40
11140;DHT22;5624;49.388;11.350;2023-04-03T02:57:06;0.40;81.40
11140;DHT22;5624;49.388;11.350;2023-04-03T02:59:35;0.50;80.90
11140;DHT22;5624;49.388;11.350;2023-04-03T03:02:00;0.50;80.90
11140;DHT22;5624;49.388;11.350;2023-04-03T03:04:26;0.40;81.10
11140;DHT22;5624;49.388;11.350;2023-04-03T03:06:51;0.30;81.90
11140;DHT22;5624;49.388;11.350;2023-04-03T03:09:17;0.30;82.10
11140;DHT22;5624;49.388;11.350;2023-04-03T03:11:43;0.40;81.50
11140;DHT22;5624;49.388;11.350;2023-04-03T03:14:09;0.50;81.40
11140;DHT22;5624;49.388;11.350;2023-04-03T03:16:34;0.40;81.80
11140;DHT22;5624;49.388;11.350;2023-04-03T03:19:00;0.40;82.50
11140;DHT22;5624;49.388;11.350;2023-04-03T03:21:25;0.30;82.80
11140;DHT22;5624;49.388;11.350;2023-04-03T03:23:51;0.50;82.10
11140;DHT22;5624;49.388;11.350;2023-04-03T03:26:17;0.50;82.40
11140;DHT22;5624;49.388;11.350;2023-04-03T03:28:42;0.50;82.30
11140;DHT22;5624;49.388;11.350;2023-04-03T03:31:08;0.50;82.40
11140;DHT22;5624;49.388;11.350;2023-04-03T03:33:34;0.50;82.70
11140;DHT22;5624;49.388;11.350;2023-04-03T03:36:00;0.50;82.60
11140;DHT22;5624;49.388;11.350;2023-04-03T03:38:26;0.50;82.90
11140;DHT22;5624;49.388;11.350;2023-04-03T03:40:52;0.60;82.80
11140;DHT22;5624;49.388;11.350;2023-04-03T03:43:17;0.60;82.70
11140;DHT22;5624;49.388;11.350;2023-04-03T03:45:44;0.60;82.70
11140;DHT22;5624;49.388;11.350;2023-04-03T03:48:10;0.60;82.90
11140;DHT22;5624;49.388;11.350;2023-04-03T03:50:36;0.60;83.00
11140;DHT22;5624;49.388;11.350;2023-04-03T03:53:02;0.60;83.30
11140;DHT22;5624;49.388;11.350;2023-04-03T03:55:28;0.60;83.10
11140;DHT22;5624;49.388;11.350;2023-04-03T03:57:53;0.60;83.60
11140;DHT22;5624;49.388;11.350;2023-04-03T04:00:19;0.50;83.80
11140;DHT22;5624;49.388;11.350;2023-04-03T04:02:45;0.50;84.00
11140;DHT22;5624;49.388;11.350;2023-04-03T04:05:11;0.60;83.70
11140;DHT22;5624;49.388;11.350;2023-04-03T04:07:36;0.60;83.80
11140;DHT22;5624;49.388;11.350;2023-04-03T04:10:02;0.50;84.00
11140;DHT22;5624;49.388;11.350;2023-04-03T04:12:28;0.50;84.20
11140;DHT22;5624;49.388;11.350;2023-04-03T04:14:53;0.50;84.50
11140;DHT22;5624;49.388;11.350;2023-04-03T04:17:19;0.50;84.80
11140;DHT22;5624;49.388;11.350;2023-04-03T04:19:45;0.50;85.20
11140;DHT22;5624;49.388;11.350;2023-04-03T04:22:11;0.50;85.10
11140;DHT22;5624;49.388;11.350;2023-04-03T04:24:36;0.40;85.30
11140;DHT22;5624;49.388;11.350;2023-04-03T04:27:02;0.40;85.50
11140;DHT22;5624;49.388;11.350;2023-04-03T04:29:28;0.40;85.90
11140;DHT22;5624;49.388;11.350;2023-04-03T04:31:53;0.40;86.10
11140;DHT22;5624;49.388;11.350;2023-04-03T04:34:19;0.40;86.10
11140;DHT22;5624;49.388;11.350;2023-04-03T04:36:45;0.40;86.20
11140;DHT22;5624;49.388;11.350;2023-04-03T04:39:10;0.40;86.60
11140;DHT22;5624;49.388;11.350;2023-04-03T04:41:36;0.40;86.60
11140;DHT22;5624;49.388;11.350;2023-04-03T04:44:01;0.40;86.60
11140;DHT22;5624;49.388;11.350;2023-04-03T04:46:27;0.40;87.00
11140;DHT22;5624;49.388;11.350;2023-04-03T04:48:52;0.40;86.90
11140;DHT22;5624;49.388;11.350;2023-04-03T04:51:18;0.40;86.90
11140;DHT22;5624;49.388;11.350;2023-04-03T04:53:44;0.40;86.70
11140;DHT22;5624;49.388;11.350;2023-04-03T04:56:10;0.40;87.00
11140;DHT22;5624;49.388;11.350;2023-04-03T04:58:36;0.40;87.20
11140;DHT22;5624;49.388;11.350;2023-04-03T05:01:07;0.40;87.20
11140;DHT22;5624;49.388;11.350;2023-04-03T05:03:33;0.40;87.30
11140;DHT22;5624;49.388;11.350;2023-04-03T05:05:59;0.30;87.30
11140;DHT22;5624;49.388;11.350;2023-04-03T05:08:24;0.30;87.60
11140;DHT22;5624;49.388;11.350;2023-04-03T05:10:50;0.30;87.90
11140;DHT22;5624;49.388;11.350;2023-04-03T05:13:16;0.30;88.10
11140;DHT22;5624;49.388;11.350;2023-04-03T05:15:42;0.30;88.50
11140;DHT22;5624;49.388;11.350;2023-04-03T05:18:08;0.30;88.60
11140;DHT22;5624;49.388;11.350;2023-04-03T05:20:34;0.30;88.50
11140;DHT22;5624;49.388;11.350;2023-04-03T05:23:00;0.40;88.40
11140;DHT22;5624;49.388;11.350;2023-04-03T05:25:26;0.40;88.10
11140;DHT22;5624;49.388;11.350;2023-04-03T05:27:51;0.40;88.30
11140;DHT22;5624;49.388;11.350;2023-04-03T05:30:17;0.50;88.20
11140;DHT22;5624;49.388;11.350;2023-04-03T05:32:44;0.40;88.30
11140;DHT22;5624;49.388;11.350;2023-04-03T05:35:09;0.40;88.10
11140;DHT22;5624;49.388;11.350;2023-04-03T05:37:35;0.50;88.00
11140;DHT22;5624;49.388;11.350;2023-04-03T05:40:02;0.60;87.60
11140;DHT22;5624;49.388;11.350;2023-04-03T05:42:28;0.60;87.20
11140;DHT22;5624;49.388;11.350;2023-04-03T05:44:54;0.60;87.40
11140;DHT22;5624;49.388;11.350;2023-04-03T05:47:19;0.60;87.50
11140;DHT22;5624;49.388;11.350;2023-04-03T05:49:45;0.70;87.50
11140;DHT22;5624;49.388;11.350;2023-04-03T05:52:21;0.70;87.30
11140;DHT22;5624;49.388;11.350;2023-04-03T05:54:48;0.70;86.70
11140;DHT22;5624;49.388;11.350;2023-04-03T05:57:14;0.80;86.40
11140;DHT22;5624;49.388;11.350;2023-04-03T05:59:42;0.80;86.30
11140;DHT22;5624;49.388;11.350;2023-04-03T06:02:15;0.80;86.40
11140;DHT22;5624;49.388;11.350;2023-04-03T06:04:41;0.90;86.40
11140;DHT22;5624;49.388;11.350;2023-04-03T06:07:07;0.90;85.40
11140;DHT22;5624;49.388;11.350;2023-04-03T06:09:35;1.00;85.20
11140;DHT22;5624;49.388;11.350;2023-04-03T06:12:01;1.00;85.00
11140;DHT22;5624;49.388;11.350;2023-04-03T06:14:27;1.10;85.50
11140;DHT22;5624;49.388;11.350;2023-04-03T06:16:53;1.00;85.30
11140;DHT22;5624;49.388;11.350;2023-04-03T06:19:19;1.00;84.80
11140;DHT22;5624;49.388;11.350;2023-04-03T06:21:45;1.00;84.90
11140;DHT22;5624;49.388;11.350;2023-04-03T06:24:14;1.00;84.60
11140;DHT22;5624;49.388;11.350;2023-04-03T06:26:41;1.10;84.50
11140;DHT22;5624;49.388;11.350;2023-04-03T06:29:06;1.10;84.60
11140;DHT22;5624;49.388;11.350;2023-04-03T06:31:32;1.20;84.40
11140;DHT22;5624;49.388;11.350;2023-04-03T06:33:58;1.20;84.50
11140;DHT22;5624;49.388;11.350;2023-04-03T06:36:23;1.30;83.40
11140;DHT22;5624;49.388;11.350;2023-04-03T06:38:49;1.30;83.70
11140;DHT22;5624;49.388;11.350;2023-04-03T06:41:15;1.40;83.10
11140;DHT22;5624;49.388;11.350;2023-04-03T06:43:42;1.50;83.10
11140;DHT22;5624;49.388;11.350;2023-04-03T06:46:16;1.60;82.40
11140;DHT22;5624;49.388;11.350;2023-04-03T06:48:42;1.70;80.70
11140;DHT22;5624;49.388;11.350;2023-04-03T06:51:24;1.70;81.60
11140;DHT22;5624;49.388;11.350;2023-04-03T06:53:51;1.80;80.60
11140;DHT22;5624;49.388;11.350;2023-04-03T06:56:17;1.70;80.30
11140;DHT22;5624;49.388;11.350;2023-04-03T06:58:45;1.80;80.90
11140;DHT22;5624;49.388;11.350;2023-04-03T07:01:13;2.00;80.20
11140;DHT22;5624;49.388;11.350;2023-04-03T07:03:39;2.00;79.30
11140;DHT22;5624;49.388;11.350;2023-04-03T07:06:06;2.10;78.60
11140;DHT22;5624;49.388;11.350;2023-04-03T07:08:33;2.20;77.70
11140;DHT22;5624;49.388;11.350;2023-04-03T07:10:59;2.10;77.60
11140;DHT22;5624;49.388;11.350;2023-04-03T07:13:25;2.20;78.00
11140;DHT22;5624;49.388;11.350;2023-04-03T07:15:52;2.40;77.80
11140;DHT22;5624;49.388;11.350;2023-04-03T07:18:18;2.40;78.00
11140;DHT22;5624;49.388;11.350;2023-04-03T07:20:43;2.50;76.00
11140;DHT22;5624;49.388;11.350;2023-04-03T07:23:09;2.50;76.50
11140;DHT22;5624;49.388;11.350;2023-04-03T07:25:36;2.60;76.90
11140;DHT22;5624;49.388;11.350;2023-04-03T07:28:01;2.70;75.70
11140;DHT22;5624;49.388;11.350;2023-04-03T07:30:27;2.90;74.30
11140;DHT22;5624;49.388;11.350;2023-04-03T07:32:53;2.90;74.20
11140;DHT22;5624;49.388;11.350;2023-04-03T07:35:19;2.90;74.30
11140;DHT22;5624;49.388;11.350;2023-04-03T07:37:44;2.70;73.30
11140;DHT22;5624;49.388;11.350;2023-04-03T07:40:10;2.70;74.50
11140;DHT22;5624;49.388;11.350;2023-04-03T07:42:36;2.70;74.10
11140;DHT22;5624;49.388;11.350;2023-04-03T07:45:03;2.80;72.80
11140;DHT22;5624;49.388;11.350;2023-04-03T07:47:29;3.00;72.40
11140;DHT22;5624;49.388;11.350;2023-04-03T07:49:54;2.90;71.00
11140;DHT22;5624;49.388;11.350;2023-04-03T07:52:22;2.90;71.70
11140;DHT22;5624;49.388;11.350;2023-04-03T07:54:48;2.90;70.50
11140;DHT22;5624;49.388;11.350;2023-04-03T07:57:13;3.00;70.80
11140;DHT22;5624;49.388;11.350;2023-04-03T07:59:39;3.10;69.20
11140;DHT22;5624;49.388;11.350;2023-04-03T08:02:09;3.10;70.40
11140;DHT22;5624;49.388;11.350;2023-04-03T08:04:35;3.30;68.90
11140;DHT22;5624;49.388;11.350;2023-04-03T08:07:00;3.40;69.60
11140;DHT22;5624;49.388;11.350;2023-04-03T08:09:26;3.50;68.00
11140;DHT22;5624;49.388;11.350;2023-04-03T08:11:52;3.50;68.70
11140;DHT22;5624;49.388;11.350;2023-04-03T08:14:19;3.70;67.20
11140;DHT22;5624;49.388;11.350;2023-04-03T08:16:46;3.80;66.30
11140;DHT22;5624;49.388;11.350;2023-04-03T08:19:12;3.90;64.90
11140;DHT22;5624;49.388;11.350;2023-04-03T08:21:40;4.00;64.30
11140;DHT22;5624;49.388;11.350;2023-04-03T08:24:07;4.10;65.10
11140;DHT22;5624;49.388;11.350;2023-04-03T08:26:33;4.10;65.50
11140;DHT22;5624;49.388;11.350;2023-04-03T08:28:59;4.30;66.10
11140;DHT22;5624;49.388;11.350;2023-04-03T08:31:25;4.70;66.00
11140;DHT22;5624;49.388;11.350;2023-04-03T08:33:51;5.20;65.20
11140;DHT22;5624;49.388;11.350;2023-04-03T08:38:47;5.70;59.40
11140;DHT22;5624;49.388;11.350;2023-04-03T08:49:21;8.10;51.70
11140;DHT22;5624;49.388;11.350;2023-04-03T08:51:49;7.60;51.00
11140;DHT22;5624;49.388;11.350;2023-04-03T08:54:28;8.50;53.50
11140;DHT22;5624;49.388;11.350;2023-04-03T08:56:55;9.50;47.50
11140;DHT22;5624;49.388;11.350;2023-04-03T08:59:28;9.00;45.50
11140;DHT22;5624;49.388;11.350;2023-04-03T09:01:56;7.00;48.20
11140;DHT22;5624;49.388;11.350;2023-04-03T09:04:31;5.50;53.30
11140;DHT22;5624;49.388;11.350;2023-04-03T09:07:04;5.10;55.10
11140;DHT22;5624;49.388;11.350;2023-04-03T09:09:38;4.60;54.50
11140;DHT22;5624;49.388;11.350;2023-04-03T09:12:25;4.50;56.70
11140;DHT22;5624;49.388;11.350;2023-04-03T09:25:40;3.90;56.20
11140;DHT22;5624;49.388;11.350;2023-04-03T09:28:06;3.90;57.30
11140;DHT22;5624;49.388;11.350;2023-04-03T09:30:35;3.90;56.60
11140;DHT22;5624;49.388;11.350;2023-04-03T09:33:01;4.00;58.40
11140;DHT22;5624;49.388;11.350;2023-04-03T09:42:57;4.40;55.20
11140;DHT22;5624;49.388;11.350;2023-04-03T09:45:31;4.70;54.60
11140;DHT22;5624;49.388;11.350;2023-04-03T09:53:40;6.40;49.10
11140;DHT22;5624;49.388;11.350;2023-04-03T09:59:08;7.40;46.40
11140;DHT22;5624;49.388;11.350;2023-04-03T10:01:44;7.80;44.90
11140;DHT22;5624;49.388;11.350;2023-04-03T10:04:21;6.90;46.90
11140;DHT22;5624;49.388;11.350;2023-04-03T10:06:52;6.60;48.70
11140;DHT22;5624;49.388;11.350;2023-04-03T10:14:29;4.90;50.70
11140;DHT22;5624;49.388;11.350;2023-04-03T10:17:31;4.70;50.10
11140;DHT22;5624;49.388;11.350;2023-04-03T10:25:40;5.60;46.50
11140;DHT22;5624;49.388;11.350;2023-04-03T10:33:30;5.70;46.80
11140;DHT22;5624;49.388;11.350;2023-04-03T10:38:48;5.10;45.60
11140;DHT22;5624;49.388;11.350;2023-04-03T10:46:49;7.80;42.10
11140;DHT22;5624;49.388;11.350;2023-04-03T10:49:30;8.10;42.00
11140;DHT22;5624;49.388;11.350;2023-04-03T10:52:14;7.60;38.70
11140;DHT22;5624;49.388;11.350;2023-04-03T10:54:50;6.90;40.10
11140;DHT22;5624;49.388;11.350;2023-04-03T10:57:18;5.90;42.20
11140;DHT22;5624;49.388;11.350;2023-04-03T10:59:50;5.30;44.90
11140;DHT22;5624;49.388;11.350;2023-04-03T11:02:41;5.00;45.50
11140;DHT22;5624;49.388;11.350;2023-04-03T11:05:40;5.20;47.40
11140;DHT22;5624;49.388;11.350;2023-04-03T11:11:30;6.40;40.40
11140;DHT22;5624;49.388;11.350;2023-04-03T11:16:44;8.30;38.90
11140;DHT22;5624;49.388;11.350;2023-04-03T11:19:13;8.00;36.50
11140;DHT22;5624;49.388;11.350;2023-04-03T11:21:53;7.40;37.80
11140;DHT22;5624;49.388;11.350;2023-04-03T11:24:26;7.00;40.90
11140;DHT22;5624;49.388;11.350;2023-04-03T11:26:54;6.80;42.70
11140;DHT22;5624;49.388;11.350;2023-04-03T11:29:37;6.70;41.90
11140;DHT22;5624;49.388;11.350;2023-04-03T11:34:40;6.70;39.80
11140;DHT22;5624;49.388;11.350;2023-04-03T11:37:33;6.20;40.00
11140;DHT22;5624;49.388;11.350;2023-04-03T11:40:34;5.90;39.30
11140;DHT22;5624;49.388;11.350;2023-04-03T11:45:59;6.80;37.30
11140;DHT22;5624;49.388;11.350;2023-04-03T11:50:59;6.90;37.20
11140;DHT22;5624;49.388;11.350;2023-04-03T11:53:26;6.80;37.40
11140;DHT22;5624;49.388;11.350;2023-04-03T11:56:04;6.90;36.40
11140;DHT22;5624;49.388;11.350;2023-04-03T11:58:35;7.30;37.40
11140;DHT22;5624;49.388;11.350;2023-04-03T12:01:11;7.60;35.10
11140;DHT22;5624;49.388;11.350;2023-04-03T12:04:06;7.70;37.80
11140;DHT22;5624;49.388;11.350;2023-04-03T12:08:57;6.10;39.50
11140;DHT22;5624;49.388;11.350;2023-04-03T12:11:30;5.80;41.40
11140;DHT22;5624;49.388;11.350;2023-04-03T12:27:17;7.20;37.70
11140;DHT22;5624;49.388;11.350;2023-04-03T12:30:13;7.40;38.30
11140;DHT22;5624;49.388;11.350;2023-04-03T12:35:31;7.20;35.50
11140;DHT22;5624;49.388;11.350;2023-04-03T12:51:21;7.40;36.80
11140;DHT22;5624;49.388;11.350;2023-04-03T12:53:49;8.00;37.40
11140;DHT22;5624;49.388;11.350;2023-04-03T12:58:49;6.10;35.00
11140;DHT22;5624;49.388;11.350;2023-04-03T13:01:24;5.50;36.70
11140;DHT22;5624;49.388;11.350;2023-04-03T13:03:55;5.40;35.90
11140;DHT22;5624;49.388;11.350;2023-04-03T13:06:28;6.10;39.70
11140;DHT22;5624;49.388;11.350;2023-04-03T13:08:58;6.50;36.10
11140;DHT22;5624;49.388;11.350;2023-04-03T13:11:39;6.90;37.00
11140;DHT22;5624;49.388;11.350;2023-04-03T13:14:16;6.90;36.80
11140;DHT22;5624;49.388;11.350;2023-04-03T13:16:42;6.90;33.70
11140;DHT22;5624;49.388;11.350;2023-04-03T13:19:17;6.90;36.10
11140;DHT22;5624;49.388;11.350;2023-04-03T13:21:44;7.20;35.40
11140;DHT22;5624;49.388;11.350;2023-04-03T13:24:11;7.40;37.30
11140;DHT22;5624;49.388;11.350;2023-04-03T13:26:37;7.80;37.40
11140;DHT22;5624;49.388;11.350;2023-04-03T13:29:07;7.90;36.20
11140;DHT22;5624;49.388;11.350;2023-04-03T13:31:40;8.10;35.60
11140;DHT22;5624;49.388;11.350;2023-04-03T13:34:13;7.50;33.30
11140;DHT22;5624;49.388;11.350;2023-04-03T13:41:53;5.80;37.80
11140;DHT22;5624;49.388;11.350;2023-04-03T13:46:52;6.50;37.20
11140;DHT22;5624;49.388;11.350;2023-04-03T13:51:54;6.50;35.50
11140;DHT22;5624;49.388;11.350;2023-04-03T13:54:28;6.90;36.50
11140;DHT22;5624;49.388;11.350;2023-04-03T13:56:57;7.20;37.10
11140;DHT22;5624;49.388;11.350;2023-04-03T13:59:32;7.20;35.00
11140;DHT22;5624;49.388;11.350;2023-04-03T14:06:57;7.10;35.70
11140;DHT22;5624;49.388;11.350;2023-04-03T14:09:25;6.90;33.90
11140;DHT22;5624;49.388;11.350;2023-04-03T14:11:56;7.10;37.30
11140;DHT22;5624;49.388;11.350;2023-04-03T14:14:26;7.50;36.90
11140;DHT22;5624;49.388;11.350;2023-04-03T14:16:56;7.70;33.80
11140;DHT22;5624;49.388;11.350;2023-04-03T14:19:24;7.30;35.00
11140;DHT22;5624;49.388;11.350;2023-04-03T14:21:52;7.20;35.60
11140;DHT22;5624;49.388;11.350;2023-04-03T14:24:18;7.10;36.50
11140;DHT22;5624;49.388;11.350;2023-04-03T14:26:45;6.90;34.70
11140;DHT22;5624;49.388;11.350;2023-04-03T14:29:12;6.50;34.60
11140;DHT22;5624;49.388;11.350;2023-04-03T14:31:39;6.50;37.40
11140;DHT22;5624;49.388;11.350;2023-04-03T14:34:05;6.70;37.00
11140;DHT22;5624;49.388;11.350;2023-04-03T14:36:31;6.90;38.20
11140;DHT22;5624;49.388;11.350;2023-04-03T14:38:59;7.10;36.60
11140;DHT22;5624;49.388;11.350;2023-04-03T14:41:26;6.90;36.60
11140;DHT22;5624;49.388;11.350;2023-04-03T14:43:53;6.90;38.90
11140;DHT22;5624;49.388;11.350;2023-04-03T14:46:29;6.80;39.70
11140;DHT22;5624;49.388;11.350;2023-04-03T14:48:56;6.70;39.80
11140;DHT22;5624;49.388;11.350;2023-04-03T14:51:21;6.50;40.50
11140;DHT22;5624;49.388;11.350;2023-04-03T14:53:47;6.50;41.10
11140;DHT22;5624;49.388;11.350;2023-04-03T14:56:18;6.70;39.90
11140;DHT22;5624;49.388;11.350;2023-04-03T14:58:44;6.30;40.20
11140;DHT22;5624;49.388;11.350;2023-04-03T15:01:13;6.30;40.00
11140;DHT22;5624;49.388;11.350;2023-04-03T15:03:39;6.20;39.90
11140;DHT22;5624;49.388;11.350;2023-04-03T15:06:05;6.00;40.70
11140;DHT22;5624;49.388;11.350;2023-04-03T15:08:31;5.90;41.20
11140;DHT22;5624;49.388;11.350;2023-04-03T15:10:57;5.80;41.30
11140;DHT22;5624;49.388;11.350;2023-04-03T15:13:24;5.90;41.70
11140;DHT22;5624;49.388;11.350;2023-04-03T15:15:51;6.20;42.20
11140;DHT22;5624;49.388;11.350;2023-04-03T15:18:20;6.50;41.30
11140;DHT22;5624;49.388;11.350;2023-04-03T15:20:46;6.50;41.50
11140;DHT22;5624;49.388;11.350;2023-04-03T15:23:14;6.30;39.80
11140;DHT22;5624;49.388;11.350;2023-04-03T15:25:42;6.20;41.10
11140;DHT22;5624;49.388;11.350;2023-04-03T15:28:16;6.10;42.50
11140;DHT22;5624;49.388;11.350;2023-04-03T15:30:42;6.20;41.90
11140;DHT22;5624;49.388;11.350;2023-04-03T15:33:08;6.10;42.20
11140;DHT22;5624;49.388;11.350;2023-04-03T15:35:34;5.80;41.30
11140;DHT22;5624;49.388;11.350;2023-04-03T15:37:59;5.60;43.00
11140;DHT22;5624;49.388;11.350;2023-04-03T15:40:25;5.50;41.80
11140;DHT22;5624;49.388;11.350;2023-04-03T15:42:51;5.40;43.80
11140;DHT22;5624;49.388;11.350;2023-04-03T15:45:16;5.50;43.70
11140;DHT22;5624;49.388;11.350;2023-04-03T15:47:42;5.50;42.00
11140;DHT22;5624;49.388;11.350;2023-04-03T15:50:08;5.50;42.40
11140;DHT22;5624;49.388;11.350;2023-04-03T15:52:35;5.50;42.90
11140;DHT22;5624;49.388;11.350;2023-04-03T15:55:00;5.60;43.20
11140;DHT22;5624;49.388;11.350;2023-04-03T15:57:26;5.70;42.80
11140;DHT22;5624;49.388;11.350;2023-04-03T15:59:52;5.40;44.40
11140;DHT22;5624;49.388;11.350;2023-04-03T16:02:18;5.20;43.60
11140;DHT22;5624;49.388;11.350;2023-04-03T16:04:44;5.00;43.70
11140;DHT22;5624;49.388;11.350;2023-04-03T16:07:09;4.90;44.60
11140;DHT22;5624;49.388;11.350;2023-04-03T16:09:36;4.80;45.00
11140;DHT22;5624;49.388;11.350;2023-04-03T16:12:02;4.90;45.10
11140;DHT22;5624;49.388;11.350;2023-04-03T16:14:28;4.90;44.70
11140;DHT22;5624;49.388;11.350;2023-04-03T16:16:56;4.70;43.80
11140;DHT22;5624;49.388;11.350;2023-04-03T16:19:22;4.60;45.10
11140;DHT22;5624;49.388;11.350;2023-04-03T16:21:48;4.60;46.60
11140;DHT22;5624;49.388;11.350;2023-04-03T16:24:13;4.70;46.50
11140;DHT22;5624;49.388;11.350;2023-04-03T16:26:40;4.70;46.50
11140;DHT22;5624;49.388;11.350;2023-04-03T16:29:05;4.70;46.20
11140;DHT22;5624;49.388;11.350;2023-04-03T16:31:32;4.60;46.10
11140;DHT22;5624;49.388;11.350;2023-04-03T16:33:58;4.60;45.60
11140;DHT22;5624;49.388;11.350;2023-04-03T16:36:24;4.60;46.40
11140;DHT22;5624;49.388;11.350;2023-04-03T16:38:50;4.50;45.70
11140;DHT22;5624;49.388;11.350;2023-04-03T16:41:16;4.40;45.30
11140;DHT22;5624;49.388;11.350;2023-04-03T16:43:41;4.30;45.30
11140;DHT22;5624;49.388;11.350;2023-04-03T16:46:07;4.20;46.40
11140;DHT22;5624;49.388;11.350;2023-04-03T16:48:32;4.10;46.80
11140;DHT22;5624;49.388;11.350;2023-04-03T16:50:59;4.20;46.00
11140;DHT22;5624;49.388;11.350;2023-04-03T16:53:26;4.10;47.80
11140;DHT22;5624;49.388;11.350;2023-04-03T16:55:52;4.10;46.80
11140;DHT22;5624;49.388;11.350;2023-04-03T16:58:17;4.10;47.00
11140;DHT22;5624;49.388;11.350;2023-04-03T17:00:43;4.00;46.90
11140;DHT22;5624;49.388;11.350;2023-04-03T17:03:09;4.00;46.50
11140;DHT22;5624;49.388;11.350;2023-04-03T17:05:35;3.90;47.30
11140;DHT22;5624;49.388;11.350;2023-04-03T17:08:00;4.00;48.00
11140;DHT22;5624;49.388;11.350;2023-04-03T17:10:27;4.00;47.90
11140;DHT22;5624;49.388;11.350;2023-04-03T17:12:53;4.00;47.70
11140;DHT22;5624;49.388;11.350;2023-04-03T17:15:19;4.00;47.70
11140;DHT22;5624;49.388;11.350;2023-04-03T17:17:46;3.90;46.80
11140;DHT22;5624;49.388;11.350;2023-04-03T17:20:12;3.70;46.20
11140;DHT22;5624;49.388;11.350;2023-04-03T17:22:38;3.50;46.40
11140;DHT22;5624;49.388;11.350;2023-04-03T17:25:05;3.50;46.80
11140;DHT22;5624;49.388;11.350;2023-04-03T17:27:31;3.50;47.20
11140;DHT22;5624;49.388;11.350;2023-04-03T17:29:57;3.40;47.60
11140;DHT22;5624;49.388;11.350;2023-04-03T17:32:22;3.40;47.20
11140;DHT22;5624;49.388;11.350;2023-04-03T17:34:50;3.30;46.90
11140;DHT22;5624;49.388;11.350;2023-04-03T17:37:16;3.20;47.60
11140;DHT22;5624;49.388;11.350;2023-04-03T17:39:41;3.20;47.40
11140;DHT22;5624;49.388;11.350;2023-04-03T17:42:07;3.20;48.40
11140;DHT22;5624;49.388;11.350;2023-04-03T17:44:32;3.20;48.80
11140;DHT22;5624;49.388;11.350;2023-04-03T17:46:59;3.20;50.00
11140;DHT22;5624;49.388;11.350;2023-04-03T17:49:25;3.20;50.00
11140;DHT22;5624;49.388;11.350;2023-04-03T17:51:50;3.10;50.20
11140;DHT22;5624;49.388;11.350;2023-04-03T17:54:16;3.00;50.00
11140;DHT22;5624;49.388;11.350;2023-04-03T17:56:41;2.90;49.90
11140;DHT22;5624;49.388;11.350;2023-04-03T17:59:13;2.90;50.30